createdAt,value
2022-08-16T00:02:30.595Z,19.53
2022-08-16T00:04:59.605Z,19.58
2022-08-16T00:07:29.113Z,19.46
2022-08-16T00:09:57.445Z,19.41
2022-08-16T00:12:24.972Z,19.40
2022-08-16T00:14:56.437Z,19.46
2022-08-16T00:17:23.804Z,19.40
2022-08-16T00:19:53.539Z,19.35
2022-08-16T00:22:24.978Z,19.31
2022-08-16T00:24:53.510Z,19.24
2022-08-16T00:27:21.635Z,19.22
2022-08-16T00:30:08.574Z,19.23
2022-08-16T00:32:36.812Z,19.23
2022-08-16T00:35:15.259Z,19.30
2022-08-16T00:37:58.553Z,19.24
2022-08-16T00:40:53.783Z,19.22
2022-08-16T00:43:24.733Z,19.14
2022-08-16T00:46:22.218Z,19.09
2022-08-16T00:48:52.764Z,19.08
2022-08-16T00:51:22.528Z,19.02
2022-08-16T00:53:52.091Z,19.01
2022-08-16T00:56:56.951Z,19.14
2022-08-16T00:59:11.860Z,19.09
2022-08-16T01:01:43.239Z,19.09
2022-08-16T01:04:28.895Z,19.04
2022-08-16T01:07:01.205Z,19.01
2022-08-16T01:09:33.281Z,18.96
2022-08-16T01:12:02.183Z,19.01
2022-08-16T01:14:34.076Z,18.96
2022-08-16T01:17:01.642Z,18.93
2022-08-16T01:19:35.055Z,18.94
2022-08-16T01:22:47.008Z,19.01
2022-08-16T01:25:11.892Z,19.12
2022-08-16T01:27:49.801Z,19.11
2022-08-16T01:30:26.150Z,19.07
2022-08-16T01:33:02.348Z,19.04
2022-08-16T01:35:52.557Z,19.03
2022-08-16T01:38:49.047Z,19.16
2022-08-16T01:41:29.687Z,19.04
2022-08-16T01:44:01.103Z,18.96
2022-08-16T01:46:42.166Z,18.86
2022-08-16T01:49:14.730Z,18.81
2022-08-16T01:51:44.732Z,18.73
2022-08-16T01:54:13.298Z,18.70
2022-08-16T01:56:42.591Z,18.74
2022-08-16T01:59:16.084Z,18.76
2022-08-16T02:01:49.802Z,18.82
2022-08-16T02:04:48.007Z,18.81
2022-08-16T02:07:11.445Z,18.70
2022-08-16T02:09:39.199Z,18.69
2022-08-16T02:12:50.340Z,18.61
2022-08-16T02:14:55.622Z,18.51
2022-08-16T02:17:22.227Z,18.46
2022-08-16T02:19:58.816Z,18.41
2022-08-16T02:22:34.180Z,18.37
2022-08-16T02:25:09.786Z,18.37
2022-08-16T02:27:36.866Z,18.33
2022-08-16T02:30:07.660Z,18.29
2022-08-16T02:32:50.752Z,18.35
2022-08-16T02:35:23.170Z,18.28
2022-08-16T02:37:52.607Z,18.21
2022-08-16T02:40:21.387Z,18.20
2022-08-16T02:42:50.632Z,18.13
2022-08-16T02:45:19.624Z,18.16
2022-08-16T02:48:01.075Z,18.15
2022-08-16T02:50:54.573Z,18.14
2022-08-16T02:53:23.645Z,18.13
2022-08-16T02:55:50.697Z,18.10
2022-08-16T02:58:18.140Z,18.05
2022-08-16T03:00:45.483Z,18.00
2022-08-16T03:03:18.013Z,17.90
2022-08-16T03:05:49.966Z,17.81
2022-08-16T03:08:50.140Z,17.77
2022-08-16T03:11:16.686Z,17.76
2022-08-16T03:13:51.249Z,17.79
2022-08-16T03:16:33.136Z,17.75
2022-08-16T03:19:06.348Z,17.81
2022-08-16T03:21:37.488Z,17.88
2022-08-16T03:24:29.215Z,17.85
2022-08-16T03:26:53.253Z,17.88
2022-08-16T03:29:27.305Z,17.82
2022-08-16T03:31:59.135Z,17.84
2022-08-16T03:34:27.468Z,17.89
2022-08-16T03:36:55.183Z,17.81
2022-08-16T03:39:22.531Z,17.85
2022-08-16T03:41:51.572Z,17.84
2022-08-16T03:44:44.351Z,17.83
2022-08-16T03:47:13.260Z,17.79
2022-08-16T03:49:51.405Z,17.89
2022-08-16T03:52:20.054Z,17.76
2022-08-16T03:54:53.561Z,17.80
2022-08-16T03:57:31.922Z,17.79
2022-08-16T04:00:20.776Z,17.83
2022-08-16T04:03:07.298Z,17.85
2022-08-16T04:05:40.790Z,17.82
2022-08-16T04:08:23.219Z,17.70
2022-08-16T04:10:53.267Z,17.67
2022-08-16T04:14:00.301Z,17.72
2022-08-16T04:16:09.629Z,17.78
2022-08-16T04:18:54.504Z,17.84
2022-08-16T04:21:30.567Z,17.79
2022-08-16T04:23:59.182Z,17.77
2022-08-16T04:26:25.793Z,17.87
2022-08-16T04:29:16.222Z,17.89
2022-08-16T04:31:47.416Z,17.88
2022-08-16T04:34:24.781Z,17.97
2022-08-16T04:36:51.530Z,18.07
2022-08-16T04:39:20.182Z,18.13
2022-08-16T04:41:56.931Z,18.27
2022-08-16T04:44:32.522Z,18.45
2022-08-16T04:47:24.144Z,18.61
2022-08-16T04:49:52.392Z,18.80
2022-08-16T04:52:32.679Z,19.04
2022-08-16T04:55:22.199Z,19.37
2022-08-16T04:57:59.238Z,19.62
2022-08-16T05:00:34.373Z,19.74
2022-08-16T05:03:07.661Z,19.85
2022-08-16T05:05:45.315Z,19.95
2022-08-16T05:08:29.111Z,20.04
2022-08-16T05:11:03.579Z,20.15
2022-08-16T05:13:39.774Z,20.27
2022-08-16T05:16:23.114Z,20.40
2022-08-16T05:18:52.425Z,20.49
2022-08-16T05:21:21.418Z,20.65
2022-08-16T05:23:55.697Z,20.67
2022-08-16T05:26:24.528Z,20.73
2022-08-16T05:28:55.494Z,20.85
2022-08-16T05:31:29.284Z,21.03
2022-08-16T05:33:57.613Z,21.09
2022-08-16T05:36:24.946Z,21.21
2022-08-16T05:39:04.836Z,21.29
2022-08-16T05:41:31.428Z,21.50
2022-08-16T05:44:05.388Z,21.59
2022-08-16T05:46:33.146Z,21.73
2022-08-16T05:49:09.106Z,21.91
2022-08-16T05:51:38.438Z,22.15
2022-08-16T05:54:06.733Z,22.02
2022-08-16T05:56:34.148Z,22.08
2022-08-16T05:59:06.411Z,22.23
2022-08-16T06:01:37.893Z,22.53
2022-08-16T06:04:13.779Z,22.75
2022-08-16T06:06:55.987Z,23.02
2022-08-16T06:09:25.942Z,23.34
2022-08-16T06:12:10.382Z,23.55
2022-08-16T06:14:37.841Z,23.86
2022-08-16T06:17:06.916Z,23.76
2022-08-16T06:19:33.988Z,23.89
2022-08-16T06:22:02.544Z,24.02
2022-08-16T06:24:54.632Z,23.96
2022-08-16T06:27:15.955Z,24.41
2022-08-16T06:29:49.961Z,24.45
2022-08-16T06:32:27.665Z,24.43
2022-08-16T06:35:02.837Z,24.46
2022-08-16T06:37:37.423Z,24.79
2022-08-16T06:40:12.873Z,24.95
2022-08-16T06:42:47.555Z,25.11
2022-08-16T06:45:15.305Z,25.11
2022-08-16T06:47:52.875Z,25.39
2022-08-16T06:50:22.049Z,25.85
2022-08-16T06:52:57.826Z,26.34
2022-08-16T06:55:34.128Z,26.58
2022-08-16T06:58:01.888Z,25.79
2022-08-16T07:00:37.634Z,25.60
2022-08-16T07:05:57.853Z,26.11
2022-08-16T07:08:27.477Z,26.30
2022-08-16T07:10:54.675Z,26.35
2022-08-16T07:14:00.776Z,26.51
2022-08-16T07:16:15.464Z,27.09
2022-08-16T07:18:58.822Z,27.21
2022-08-16T07:21:46.646Z,27.89
2022-08-16T07:24:29.469Z,28.44
2022-08-16T07:26:58.943Z,27.55
2022-08-16T07:29:27.996Z,27.65
2022-08-16T07:31:58.904Z,27.77
2022-08-16T07:34:35.797Z,27.77
2022-08-16T07:37:07.848Z,28.25
2022-08-16T07:39:43.306Z,28.63
2022-08-16T07:42:26.099Z,28.57
2022-08-16T07:44:57.174Z,29.17
2022-08-16T07:47:31.722Z,29.32
2022-08-16T07:49:59.746Z,29.13
2022-08-16T07:52:29.753Z,29.34
2022-08-16T07:54:57.948Z,29.60
2022-08-16T07:57:25.311Z,29.21
2022-08-16T07:59:53.095Z,28.65
2022-08-16T08:02:21.087Z,28.75
2022-08-16T08:04:48.565Z,28.70
2022-08-16T08:07:16.346Z,28.65
2022-08-16T08:09:44.139Z,29.51
2022-08-16T08:12:31.445Z,30.04
2022-08-16T08:14:59.999Z,30.12
2022-08-16T08:17:42.056Z,30.55
2022-08-16T08:20:20.760Z,30.76
2022-08-16T08:23:00.539Z,30.64
2022-08-16T08:25:53.932Z,30.77
2022-08-16T08:28:18.810Z,30.33
2022-08-16T08:30:51.003Z,30.46
2022-08-16T08:33:23.820Z,31.35
2022-08-16T08:35:50.483Z,31.55
2022-08-16T08:38:43.737Z,31.47
2022-08-16T08:41:08.731Z,30.94
2022-08-16T08:43:41.491Z,31.55
2022-08-16T08:46:17.916Z,32.01
2022-08-16T08:49:00.166Z,31.34
2022-08-16T08:51:31.883Z,31.00
2022-08-16T08:54:06.897Z,31.48
2022-08-16T08:56:37.569Z,31.57
2022-08-16T08:59:12.971Z,31.92
2022-08-16T09:01:43.199Z,32.13
2022-08-16T09:04:23.981Z,32.14
2022-08-16T09:06:53.996Z,32.02
2022-08-16T09:09:21.620Z,32.10
2022-08-16T09:11:53.429Z,31.14
2022-08-16T09:14:33.048Z,30.77
2022-08-16T09:17:02.695Z,30.59
2022-08-16T09:19:34.074Z,29.76
2022-08-16T09:22:01.419Z,29.48
2022-08-16T09:24:46.849Z,29.53
2022-08-16T09:27:14.878Z,29.19
2022-08-16T09:29:45.289Z,29.52
2022-08-16T09:32:12.683Z,29.60
2022-08-16T09:34:58.301Z,29.72
2022-08-16T09:37:29.656Z,29.85
2022-08-16T09:40:00.549Z,29.90
2022-08-16T09:42:29.223Z,29.86
2022-08-16T09:45:11.776Z,30.26
2022-08-16T09:47:56.674Z,31.13
2022-08-16T09:50:37.135Z,32.38
2022-08-16T09:53:16.609Z,32.47
2022-08-16T09:55:50.294Z,32.42
2022-08-16T09:58:41.481Z,32.14
2022-08-16T10:01:08.332Z,31.47
2022-08-16T10:03:35.426Z,31.01
2022-08-16T10:06:02.213Z,30.60
2022-08-16T10:08:28.894Z,30.19
2022-08-16T10:11:15.764Z,29.54
2022-08-16T10:13:51.504Z,29.87
2022-08-16T10:16:21.815Z,30.34
2022-08-16T10:19:01.821Z,30.26
2022-08-16T10:21:33.592Z,30.88
2022-08-16T10:24:02.291Z,31.29
2022-08-16T10:27:16.667Z,31.49
2022-08-16T10:29:20.136Z,30.85
2022-08-16T10:31:53.538Z,31.75
2022-08-16T10:34:31.708Z,32.07
2022-08-16T10:37:00.176Z,32.30
2022-08-16T10:39:26.941Z,31.91
2022-08-16T10:42:08.209Z,31.43
2022-08-16T10:44:35.043Z,30.94
2022-08-16T10:47:02.350Z,31.20
2022-08-16T10:49:30.610Z,30.95
2022-08-16T10:52:03.002Z,30.71
2022-08-16T10:54:59.961Z,30.94
2022-08-16T10:57:33.212Z,30.73
2022-08-16T11:00:04.797Z,30.55
2022-08-16T11:02:58.929Z,30.24
2022-08-16T11:05:18.617Z,30.34
2022-08-16T11:07:51.951Z,30.58
2022-08-16T11:13:57.274Z,31.08
2022-08-16T11:19:04.260Z,31.01
2022-08-16T11:21:33.502Z,31.27
2022-08-16T11:24:01.966Z,31.78
2022-08-16T11:26:30.312Z,31.93
2022-08-16T11:29:13.849Z,32.24
2022-08-16T11:31:45.658Z,31.51
2022-08-16T11:34:21.219Z,31.21
2022-08-16T11:36:53.676Z,31.28
2022-08-16T11:39:29.450Z,31.22
2022-08-16T11:41:56.722Z,31.14
2022-08-16T11:44:52.484Z,31.54
2022-08-16T11:47:11.616Z,32.16
2022-08-16T11:49:38.342Z,32.37
2022-08-16T11:52:05.450Z,33.02
2022-08-16T11:54:36.330Z,32.38
2022-08-16T11:57:04.563Z,31.92
2022-08-16T11:59:39.878Z,31.28
2022-08-16T12:02:31.072Z,31.17
2022-08-16T12:04:56.083Z,30.94
2022-08-16T12:07:23.769Z,30.30
2022-08-16T12:09:53.211Z,30.39
2022-08-16T12:12:21.035Z,30.65
2022-08-16T12:14:59.376Z,30.77
2022-08-16T12:17:32.193Z,30.93
2022-08-16T12:20:05.243Z,31.95
2022-08-16T12:22:36.711Z,33.12
2022-08-16T12:25:09.437Z,32.70
2022-08-16T12:27:37.549Z,31.59
2022-08-16T12:30:07.379Z,30.79
2022-08-16T12:32:52.870Z,31.06
2022-08-16T12:35:24.696Z,30.78
2022-08-16T12:37:56.665Z,30.59
2022-08-16T12:40:29.108Z,31.03
2022-08-16T12:43:00.726Z,31.58
2022-08-16T12:45:31.968Z,32.01
2022-08-16T12:48:35.021Z,32.01
2022-08-16T12:51:13.497Z,31.60
2022-08-16T12:53:47.794Z,31.57
2022-08-16T12:56:16.979Z,31.64
2022-08-16T12:58:51.726Z,31.69
2022-08-16T13:01:22.576Z,31.72
2022-08-16T13:03:59.144Z,30.99
2022-08-16T13:06:32.071Z,30.89
2022-08-16T13:09:02.491Z,30.92
2022-08-16T13:11:38.415Z,30.93
2022-08-16T13:14:08.026Z,30.81
2022-08-16T13:16:45.938Z,30.96
2022-08-16T13:19:12.619Z,30.33
2022-08-16T13:21:39.236Z,30.15
2022-08-16T13:24:08.197Z,30.46
2022-08-16T13:26:34.811Z,30.75
2022-08-16T13:29:01.419Z,31.13
2022-08-16T13:31:27.967Z,31.25
2022-08-16T13:33:58.928Z,31.06
2022-08-16T13:36:48.058Z,30.75
2022-08-16T13:39:12.714Z,30.58
2022-08-16T13:41:39.368Z,30.50
2022-08-16T13:44:09.177Z,30.56
2022-08-16T13:46:37.118Z,30.50
2022-08-16T13:49:04.276Z,30.60
2022-08-16T13:51:31.233Z,30.66
2022-08-16T13:54:03.749Z,30.56
2022-08-16T13:56:36.794Z,30.78
2022-08-16T13:59:16.524Z,30.55
2022-08-16T14:01:55.140Z,30.88
2022-08-16T14:04:27.684Z,31.02
2022-08-16T14:06:56.260Z,31.00
2022-08-16T14:09:23.961Z,30.70
2022-08-16T14:11:53.424Z,30.55
2022-08-16T14:14:28.386Z,30.63
2022-08-16T14:16:57.528Z,30.60
2022-08-16T14:19:24.185Z,30.73
2022-08-16T14:22:14.786Z,30.72
2022-08-16T14:24:45.182Z,30.49
2022-08-16T14:27:15.007Z,30.36
2022-08-16T14:29:42.334Z,30.49
2022-08-16T14:32:09.390Z,30.74
2022-08-16T14:34:40.412Z,30.59
2022-08-16T14:37:07.962Z,30.62
2022-08-16T14:39:35.368Z,30.71
2022-08-16T14:42:25.597Z,30.63
2022-08-16T14:44:53.207Z,30.46
2022-08-16T14:47:22.738Z,30.50
2022-08-16T14:49:49.772Z,30.48
2022-08-16T14:52:44.458Z,30.41
2022-08-16T14:55:10.895Z,30.21
2022-08-16T14:57:39.039Z,30.25
2022-08-16T15:00:09.731Z,30.40
2022-08-16T15:02:39.203Z,30.59
2022-08-16T15:05:09.322Z,30.69
2022-08-16T15:07:36.332Z,30.48
2022-08-16T15:10:12.081Z,30.48
2022-08-16T15:12:54.205Z,30.22
2022-08-16T15:15:24.328Z,30.24
2022-08-16T15:17:56.235Z,30.20
2022-08-16T15:20:28.059Z,30.14
2022-08-16T15:22:58.086Z,30.18
2022-08-16T15:25:41.344Z,30.28
2022-08-16T15:28:23.970Z,30.14
2022-08-16T15:31:01.012Z,30.21
2022-08-16T15:33:33.894Z,30.23
2022-08-16T15:36:02.618Z,30.45
2022-08-16T15:38:54.968Z,30.58
2022-08-16T15:41:33.820Z,30.24
2022-08-16T15:44:05.577Z,30.16
2022-08-16T15:46:55.837Z,30.20
2022-08-16T15:49:36.940Z,30.15
2022-08-16T15:52:15.033Z,30.22
2022-08-16T15:54:52.469Z,30.10
2022-08-16T15:57:20.187Z,29.96
2022-08-16T15:59:52.542Z,29.69
2022-08-16T16:02:29.395Z,29.60
2022-08-16T16:05:01.570Z,29.55
2022-08-16T16:07:30.336Z,29.38
2022-08-16T16:09:59.237Z,29.24
2022-08-16T16:12:50.968Z,29.25
2022-08-16T16:15:18.629Z,29.00
2022-08-16T16:17:50.908Z,28.97
2022-08-16T16:20:21.116Z,29.08
2022-08-16T16:22:49.815Z,29.09
2022-08-16T16:25:17.478Z,29.10
2022-08-16T16:27:45.508Z,29.19
2022-08-16T16:30:37.293Z,29.26
2022-08-16T16:33:02.929Z,29.21
2022-08-16T16:35:32.901Z,29.03
2022-08-16T16:38:00.548Z,28.87
2022-08-16T16:40:32.829Z,28.85
2022-08-16T16:43:00.466Z,28.86
2022-08-16T16:45:34.838Z,28.77
2022-08-16T16:48:12.081Z,28.73
2022-08-16T16:50:44.574Z,28.74
2022-08-16T16:53:17.709Z,28.71
2022-08-16T16:55:47.799Z,28.63
2022-08-16T16:58:43.314Z,28.56
2022-08-16T17:01:10.960Z,28.38
2022-08-16T17:03:38.616Z,28.23
2022-08-16T17:06:09.088Z,28.26
2022-08-16T17:08:40.631Z,28.25
2022-08-16T17:11:08.226Z,28.23
2022-08-16T17:13:35.261Z,28.21
2022-08-16T17:16:02.297Z,28.15
2022-08-16T17:19:16.902Z,28.12
2022-08-16T17:21:17.896Z,28.06
2022-08-16T17:23:58.870Z,28.03
2022-08-16T17:26:30.050Z,28.00
2022-08-16T17:29:02.622Z,27.90
2022-08-16T17:31:40.661Z,27.82
2022-08-16T17:34:28.604Z,27.77
2022-08-16T17:36:56.747Z,27.64
2022-08-16T17:39:25.719Z,27.61
2022-08-16T17:41:52.611Z,27.55
2022-08-16T17:44:19.424Z,27.48
2022-08-16T17:46:51.734Z,27.38
2022-08-16T17:49:19.360Z,27.25
2022-08-16T17:51:46.154Z,27.13
2022-08-16T17:54:30.238Z,27.05
2022-08-16T17:57:01.320Z,26.87
2022-08-16T17:59:30.432Z,26.78
2022-08-16T18:01:58.200Z,26.59
2022-08-16T18:04:49.707Z,26.44
2022-08-16T18:07:12.590Z,26.04
2022-08-16T18:09:41.009Z,26.02
2022-08-16T18:12:44.906Z,25.74
2022-08-16T18:15:08.603Z,25.55
2022-08-16T18:17:35.708Z,25.39
2022-08-16T18:20:02.439Z,25.17
2022-08-16T18:22:32.199Z,25.01
2022-08-16T18:24:59.125Z,24.81
2022-08-16T18:27:28.609Z,24.65
2022-08-16T18:29:55.671Z,24.53
2022-08-16T18:32:24.481Z,24.38
2022-08-16T18:34:52.338Z,24.30
2022-08-16T18:37:19.890Z,24.22
2022-08-16T18:39:46.662Z,24.03
2022-08-16T18:42:14.928Z,24.03
2022-08-16T18:44:44.171Z,23.96
2022-08-16T18:47:11.201Z,23.88
2022-08-16T18:49:38.730Z,23.85
2022-08-16T18:52:06.691Z,23.75
2022-08-16T18:54:34.223Z,23.71
2022-08-16T18:57:20.845Z,23.49
2022-08-16T18:59:48.344Z,23.53
2022-08-16T19:02:56.145Z,23.48
2022-08-16T19:05:20.823Z,23.39
2022-08-16T19:07:48.384Z,23.19
2022-08-16T19:10:15.910Z,23.13
2022-08-16T19:12:43.227Z,23.13
2022-08-16T19:15:17.545Z,23.13
2022-08-16T19:17:46.626Z,23.10
2022-08-16T19:20:16.422Z,23.04
2022-08-16T19:25:48.332Z,22.93
2022-08-16T19:28:51.343Z,22.82
2022-08-16T19:31:21.330Z,22.82
2022-08-16T19:33:54.173Z,22.88
2022-08-16T19:36:31.039Z,22.91
2022-08-16T19:39:04.613Z,22.88
2022-08-16T19:41:33.086Z,22.80
2022-08-16T19:43:59.771Z,22.71
2022-08-16T19:46:26.529Z,22.56
2022-08-16T19:48:53.152Z,22.56
2022-08-16T19:51:19.745Z,22.48
2022-08-16T19:53:46.352Z,22.46
2022-08-16T19:56:13.024Z,22.39
2022-08-16T19:58:51.010Z,22.38
2022-08-16T20:01:26.144Z,22.35
2022-08-16T20:03:52.621Z,22.37
2022-08-16T20:06:38.652Z,22.34
2022-08-16T20:09:06.428Z,22.41
2022-08-16T20:11:34.333Z,22.59
2022-08-16T20:14:01.001Z,22.60
2022-08-16T20:16:27.510Z,22.62
2022-08-16T20:18:54.081Z,22.60
2022-08-16T20:21:20.832Z,22.54
2022-08-16T20:23:47.431Z,22.34
2022-08-16T20:26:14.177Z,22.31
2022-08-16T20:28:52.605Z,22.23
2022-08-16T20:31:24.455Z,22.34
2022-08-16T20:33:53.052Z,22.43
2022-08-16T20:36:19.786Z,22.47
2022-08-16T20:38:47.888Z,22.53
2022-08-16T20:41:16.605Z,22.53
2022-08-16T20:43:43.913Z,22.47
2022-08-16T20:46:12.514Z,22.26
2022-08-16T20:48:39.210Z,22.19
2022-08-16T20:51:06.916Z,22.22
2022-08-16T20:53:34.041Z,22.27
2022-08-16T20:56:00.717Z,22.35
2022-08-16T20:58:27.455Z,22.39
2022-08-16T21:00:54.209Z,22.50
2022-08-16T21:03:20.870Z,22.50
2022-08-16T21:05:47.570Z,22.48
2022-08-16T21:08:50.776Z,22.42
2022-08-16T21:11:03.463Z,22.41
2022-08-16T21:13:31.065Z,22.33
2022-08-16T21:15:58.865Z,22.20
2022-08-16T21:18:26.222Z,22.08
2022-08-16T21:20:53.848Z,21.95
2022-08-16T21:23:21.333Z,21.80
2022-08-16T21:25:58.087Z,21.68
2022-08-16T21:28:40.878Z,21.58
2022-08-16T21:31:15.312Z,21.54
2022-08-16T21:33:43.306Z,21.46
2022-08-16T21:36:11.241Z,21.43
2022-08-16T21:38:38.437Z,21.45
2022-08-16T21:41:08.553Z,21.43
2022-08-16T21:43:35.368Z,21.43
2022-08-16T21:46:03.530Z,21.45
2022-08-16T21:48:33.540Z,21.40
2022-08-16T21:51:01.053Z,21.33
2022-08-16T21:53:28.540Z,21.34
2022-08-16T21:55:58.007Z,21.37
2022-08-16T21:58:25.508Z,21.41
2022-08-16T22:00:52.164Z,21.34
2022-08-16T22:03:19.116Z,21.30
2022-08-16T22:06:11.596Z,21.25
2022-08-16T22:08:35.845Z,21.30
2022-08-16T22:11:15.599Z,21.31
2022-08-16T22:13:42.170Z,21.26
2022-08-16T22:16:15.970Z,21.26
2022-08-16T22:18:42.477Z,21.25
2022-08-16T22:21:18.986Z,21.18
2022-08-16T22:23:45.633Z,21.05
2022-08-16T22:26:30.880Z,21.04
2022-08-16T22:29:04.675Z,21.03
2022-08-16T22:31:32.524Z,20.99
2022-08-16T22:34:01.919Z,20.92
2022-08-16T22:36:30.320Z,20.89
2022-08-16T22:38:59.317Z,20.81
2022-08-16T22:41:28.169Z,20.73
2022-08-16T22:43:55.009Z,20.65
2022-08-16T22:46:21.710Z,20.55
2022-08-16T22:48:50.575Z,20.51
2022-08-16T22:51:19.013Z,20.60
2022-08-16T22:53:46.035Z,20.59
2022-08-16T22:56:12.827Z,20.52
2022-08-16T22:58:39.689Z,20.47
2022-08-16T23:01:07.852Z,20.48
2022-08-16T23:03:35.253Z,20.48
2022-08-16T23:06:02.182Z,20.50
2022-08-16T23:08:39.388Z,20.46
2022-08-16T23:11:14.407Z,20.41
2022-08-16T23:13:52.749Z,20.41
2022-08-16T23:16:33.483Z,20.37
2022-08-16T23:19:09.891Z,20.33
2022-08-16T23:21:38.458Z,20.27
2022-08-16T23:24:06.657Z,20.34
2022-08-16T23:26:45.090Z,20.31
2022-08-16T23:29:21.951Z,20.25
2022-08-16T23:31:58.766Z,20.24
2022-08-16T23:34:27.291Z,20.21
2022-08-16T23:36:54.189Z,20.08
2022-08-16T23:39:20.858Z,20.03
2022-08-16T23:41:47.503Z,20.03
2022-08-16T23:44:55.699Z,20.02
2022-08-16T23:47:00.826Z,20.05
2022-08-16T23:49:57.516Z,20.15
2022-08-16T23:52:14.035Z,20.20
2022-08-16T23:54:40.609Z,20.21
2022-08-16T23:57:08.238Z,20.25
2022-08-16T23:59:45.855Z,20.27
